createdAt,value
2018-04-24T00:37:19.683Z,13.4
2018-04-24T03:33:40.342Z,11.4
2018-04-24T04:32:11.282Z,11
2018-04-24T04:32:31.451Z,11.1
2018-04-24T04:41:33.989Z,11.1
2018-04-24T04:41:53.988Z,11
2018-04-24T04:42:14.135Z,11
2018-04-24T04:42:34.305Z,11
2018-04-24T04:42:54.453Z,11
2018-04-24T04:43:14.607Z,11
2018-04-24T04:50:17.882Z,10.8
2018-04-24T04:50:38.117Z,10.8
2018-04-24T04:51:46.541Z,10.9
2018-04-24T04:52:06.772Z,11
2018-04-24T04:53:29.763Z,11
2018-04-24T04:55:06.425Z,10.9
2018-04-24T04:56:04.619Z,10.9
2018-04-24T04:57:09.025Z,10.9
2018-04-24T04:58:32.191Z,11
2018-04-24T04:59:43.872Z,11.1
2018-04-24T05:00:22.583Z,11.1
2018-04-24T05:01:33.604Z,11.1
2018-04-24T05:09:58.457Z,11.3
2018-04-24T05:11:28.577Z,11.3
2018-04-24T05:14:10.018Z,11.3
2018-04-24T05:15:33.880Z,11.3
2018-04-24T05:15:54.052Z,11.3
2018-04-24T05:17:16.990Z,11.4
2018-04-24T05:17:37.160Z,11.3
2018-04-24T05:17:57.339Z,11.3
2018-04-24T05:18:52.493Z,11.3
2018-04-24T05:20:09.801Z,11.2
2018-04-24T05:21:27.230Z,11.3
2018-04-24T05:22:26.816Z,11.3
2018-04-24T05:22:47.011Z,11.3
2018-04-24T05:23:07.148Z,11.3
2018-04-24T05:23:27.335Z,11.2
2018-04-24T05:23:47.515Z,11.2
2018-04-24T05:24:07.714Z,11.3
2018-04-24T05:24:27.936Z,11.3
2018-04-24T05:24:48.088Z,11.3
2018-04-24T05:25:08.242Z,11.4
2018-04-24T05:25:28.447Z,11.4
2018-04-24T05:25:48.625Z,11.4
2018-04-24T05:26:08.783Z,11.3
2018-04-24T05:26:29.014Z,11.4
2018-04-24T05:26:49.142Z,11.4
2018-04-24T05:27:09.337Z,11.4
2018-04-24T05:27:29.510Z,11.5
2018-04-24T05:27:49.723Z,11.4
2018-04-24T05:28:09.933Z,11.4
2018-04-24T05:28:30.095Z,11.4
2018-04-24T05:28:50.251Z,11.4
2018-04-24T05:29:10.404Z,11.5
2018-04-24T05:29:30.601Z,11.5
2018-04-24T05:29:50.776Z,11.6
2018-04-24T05:30:10.981Z,11.6
2018-04-24T05:30:31.161Z,11.5
2018-04-24T05:30:51.351Z,11.5
2018-04-24T05:31:11.548Z,11.6
2018-04-24T05:31:31.702Z,11.6
2018-04-24T05:31:51.863Z,11.6
2018-04-24T05:32:12.018Z,11.6
2018-04-24T05:32:32.178Z,11.6
2018-04-24T05:32:52.389Z,11.5
2018-04-24T05:33:12.578Z,11.6
2018-04-24T05:33:32.701Z,11.6
2018-04-24T05:33:52.875Z,11.5
2018-04-24T05:34:13.068Z,11.6
2018-04-24T05:34:33.231Z,11.6
2018-04-24T05:34:53.386Z,11.6
2018-04-24T05:35:13.568Z,11.6
2018-04-24T05:35:33.766Z,11.7
2018-04-24T05:35:53.929Z,11.7
2018-04-24T05:36:14.103Z,11.7
2018-04-24T05:36:34.248Z,11.7
2018-04-24T05:36:54.434Z,11.8
2018-04-24T05:37:14.584Z,11.6
2018-04-24T05:37:34.735Z,11.6
2018-04-24T05:37:54.911Z,11.7
2018-04-24T05:38:15.099Z,11.7
2018-04-24T05:38:35.283Z,11.7
2018-04-24T05:38:55.458Z,11.7
2018-04-24T05:39:15.614Z,11.7
2018-04-24T05:39:35.812Z,11.8
2018-04-24T05:39:55.976Z,11.7
2018-04-24T05:40:16.136Z,11.8
2018-04-24T05:40:36.306Z,11.8
2018-04-24T05:40:56.460Z,11.8
2018-04-24T05:41:16.618Z,11.8
2018-04-24T05:41:36.780Z,11.8
2018-04-24T05:41:56.979Z,11.9
2018-04-24T05:42:17.199Z,11.8
2018-04-24T05:42:37.363Z,11.8
2018-04-24T05:42:57.552Z,11.8
2018-04-24T05:43:17.738Z,11.8
2018-04-24T05:43:37.900Z,11.8
2018-04-24T05:43:58.098Z,11.8
2018-04-24T05:44:18.287Z,11.8
2018-04-24T05:44:38.466Z,11.8
2018-04-24T05:44:58.644Z,11.8
2018-04-24T05:45:18.912Z,11.8
2018-04-24T05:45:39.013Z,11.8
2018-04-24T05:45:59.166Z,11.9
2018-04-24T05:46:19.398Z,11.8
2018-04-24T05:46:39.595Z,11.8
2018-04-24T05:46:59.753Z,11.8
2018-04-24T05:47:19.918Z,11.9
2018-04-24T05:47:40.153Z,11.9
2018-04-24T05:48:00.344Z,11.9
2018-04-24T05:48:20.525Z,11.9
2018-04-24T05:48:40.661Z,12
2018-04-24T05:49:00.884Z,11.9
2018-04-24T05:49:21.070Z,11.9
2018-04-24T05:49:41.282Z,11.9
2018-04-24T05:50:01.470Z,11.9
2018-04-24T05:50:21.625Z,11.9
2018-04-24T05:50:41.876Z,11.9
2018-04-24T05:51:02.079Z,11.9
2018-04-24T05:51:22.294Z,11.9
2018-04-24T05:51:42.529Z,12
2018-04-24T05:52:02.787Z,11.9
2018-04-24T05:52:23.004Z,12
2018-04-24T05:52:43.082Z,12
2018-04-24T05:53:03.337Z,12
2018-04-24T05:53:23.495Z,12.2
2018-04-24T05:53:43.665Z,12.1
2018-04-24T05:54:03.871Z,12.1
2018-04-24T05:54:24.032Z,12.1
2018-04-24T05:54:44.232Z,12.1
2018-04-24T05:55:04.402Z,12.1
2018-04-24T05:55:24.563Z,12.2
2018-04-24T05:55:44.773Z,12.2
2018-04-24T05:56:04.959Z,12.2
2018-04-24T05:56:25.168Z,12.2
2018-04-24T05:56:45.293Z,12.2
2018-04-24T05:57:05.634Z,12.2
2018-04-24T05:57:25.728Z,12.2
2018-04-24T05:57:46.077Z,12.2
2018-04-24T05:58:06.267Z,12.2
2018-04-24T05:58:26.463Z,12.2
2018-04-24T05:58:46.614Z,12.2
2018-04-24T05:59:06.766Z,12.2
2018-04-24T05:59:26.933Z,12.3
2018-04-24T05:59:47.114Z,12.3
2018-04-24T06:00:07.312Z,12.3
2018-04-24T06:00:27.477Z,12.3
2018-04-24T06:00:47.631Z,12.3
2018-04-24T06:01:07.781Z,12.3
2018-04-24T06:01:28.039Z,12.3
2018-04-24T06:01:48.209Z,12.3
2018-04-24T06:02:08.369Z,12.3
2018-04-24T06:02:28.542Z,12.3
2018-04-24T06:02:48.709Z,12.3
2018-04-24T06:03:08.952Z,12.4
2018-04-24T06:03:29.010Z,12.5
2018-04-24T06:03:49.205Z,12.4
2018-04-24T06:04:09.373Z,12.4
2018-04-24T06:04:29.564Z,12.4
2018-04-24T06:04:49.736Z,12.4
2018-04-24T06:05:09.926Z,12.5
2018-04-24T06:05:30.064Z,12.5
2018-04-24T06:05:50.243Z,12.5
2018-04-24T06:06:10.433Z,12.5
2018-04-24T06:06:30.639Z,12.5
2018-04-24T06:06:50.832Z,12.5
2018-04-24T06:07:11.077Z,12.5
2018-04-24T06:07:31.251Z,12.5
2018-04-24T06:07:51.411Z,12.5
2018-04-24T06:08:11.600Z,12.5
2018-04-24T06:08:31.870Z,12.5
2018-04-24T06:08:52.065Z,12.6
2018-04-24T06:09:12.239Z,12.6
2018-04-24T06:09:32.413Z,12.6
2018-04-24T06:09:52.603Z,12.6
2018-04-24T06:10:12.738Z,12.6
2018-04-24T06:10:32.889Z,12.6
2018-04-24T06:10:53.078Z,12.6
2018-04-24T06:11:13.295Z,12.8
2018-04-24T06:11:33.515Z,12.7
2018-04-24T06:11:53.690Z,12.7
2018-04-24T06:12:13.876Z,12.7
2018-04-24T06:12:34.078Z,12.8
2018-04-24T06:12:54.224Z,12.8
2018-04-24T06:13:14.391Z,12.8
2018-04-24T06:13:34.558Z,12.8
2018-04-24T06:13:54.826Z,12.8
2018-04-24T06:14:15.030Z,12.8
2018-04-24T06:14:35.240Z,12.8
2018-04-24T06:14:55.505Z,12.8
2018-04-24T06:15:15.761Z,12.9
2018-04-24T06:15:35.969Z,12.8
2018-04-24T06:15:56.243Z,12.9
2018-04-24T06:16:16.502Z,12.9
2018-04-24T06:16:36.781Z,12.9
2018-04-24T06:16:56.961Z,12.9
2018-04-24T06:17:17.119Z,12.9
2018-04-24T06:17:37.307Z,13
2018-04-24T06:17:57.529Z,13
2018-04-24T06:18:17.855Z,13
2018-04-24T06:18:38.040Z,13
2018-04-24T06:18:58.308Z,13
2018-04-24T06:19:18.568Z,13
2018-04-24T06:19:38.741Z,13.1
2018-04-24T06:19:59.096Z,13.1
2018-04-24T06:20:19.579Z,13
2018-04-24T06:20:39.946Z,13.1
2018-04-24T06:21:00.148Z,13.1
2018-04-24T06:21:20.359Z,13.1
2018-04-24T06:21:40.610Z,13.2
2018-04-24T06:22:00.849Z,13.2
2018-04-24T06:22:21.093Z,13.2
2018-04-24T06:22:41.286Z,13.2
2018-04-24T06:23:01.568Z,13.2
2018-04-24T06:23:21.860Z,13.2
2018-04-24T06:23:42.081Z,13.2
2018-04-24T06:24:02.331Z,13.3
2018-04-24T06:24:22.652Z,13.3
2018-04-24T06:24:43.041Z,13.3
2018-04-24T06:25:03.337Z,13.3
2018-04-24T06:25:23.640Z,13.3
2018-04-24T06:25:44.092Z,13.3
2018-04-24T06:26:04.437Z,13.4
2018-04-24T06:26:24.981Z,13.4
2018-04-24T06:26:45.354Z,13.4
2018-04-24T06:27:05.799Z,13.4
2018-04-24T06:27:26.093Z,13.6
2018-04-24T06:27:46.504Z,13.4
2018-04-24T06:28:06.747Z,13.5
2018-04-24T06:28:27.198Z,13.5
2018-04-24T06:28:47.624Z,13.5
2018-04-24T06:29:08.086Z,13.5
2018-04-24T06:29:28.663Z,13.5
2018-04-24T06:29:49.173Z,13.4
2018-04-24T06:30:09.492Z,13.5
2018-04-24T06:30:30.094Z,13.5
2018-04-24T06:30:50.501Z,13.5
2018-04-24T06:31:11.034Z,13.6
2018-04-24T06:31:31.436Z,13.5
2018-04-24T06:31:51.889Z,13.5
2018-04-24T06:32:12.535Z,13.6
2018-04-24T06:32:32.884Z,13.6
2018-04-24T06:32:53.226Z,13.6
2018-04-24T06:33:13.792Z,13.7
2018-04-24T06:33:34.190Z,13.7
2018-04-24T06:33:54.615Z,13.7
2018-04-24T06:34:15.092Z,13.6
2018-04-24T06:34:35.611Z,13.7
2018-04-24T06:34:55.968Z,13.6
2018-04-24T06:35:16.309Z,13.6
2018-04-24T06:35:36.653Z,13.5
2018-04-24T06:35:57.037Z,13.5
2018-04-24T06:36:17.539Z,13.5
2018-04-24T06:36:38.167Z,13.5
2018-04-24T06:36:58.650Z,13.5
2018-04-24T06:37:18.994Z,13.6
2018-04-24T06:37:39.362Z,13.6
2018-04-24T06:37:59.781Z,13.7
2018-04-24T06:38:20.161Z,13.7
2018-04-24T06:38:41.205Z,13.7
2018-04-24T06:39:01.581Z,13.8
2018-04-24T06:39:21.977Z,13.8
2018-04-24T06:39:42.336Z,13.8
2018-04-24T06:40:02.715Z,13.8
2018-04-24T06:40:22.946Z,13.9
2018-04-24T06:40:43.555Z,13.9
2018-04-24T06:41:03.928Z,13.8
2018-04-24T06:41:24.388Z,13.9
2018-04-24T06:41:44.885Z,13.9
2018-04-24T06:42:05.378Z,13.9
2018-04-24T06:42:25.919Z,13.9
2018-04-24T06:42:46.229Z,13.9
2018-04-24T06:43:06.546Z,13.9
2018-04-24T06:43:26.994Z,13.9
2018-04-24T06:43:47.286Z,14
2018-04-24T06:44:07.606Z,14
2018-04-24T06:44:27.992Z,14.1
2018-04-24T06:44:48.338Z,14.1
2018-04-24T06:45:08.584Z,14.1
2018-04-24T06:45:29.072Z,14.1
2018-04-24T06:45:49.562Z,14.1
2018-04-24T06:46:10.101Z,14
2018-04-24T06:46:30.580Z,14.1
2018-04-24T06:46:51.096Z,14.1
2018-04-24T06:47:11.605Z,14
2018-04-24T06:47:32.039Z,14
2018-04-24T06:47:52.455Z,14.2
2018-04-24T06:48:12.797Z,14.2
2018-04-24T06:48:33.142Z,14.1
2018-04-24T06:48:53.511Z,14.2
2018-04-24T06:49:14.068Z,14.1
2018-04-24T06:49:34.573Z,14.2
2018-04-24T06:49:54.937Z,14.2
2018-04-24T06:50:15.163Z,14.2
2018-04-24T06:50:35.610Z,14.2
2018-04-24T06:50:55.926Z,14.2
2018-04-24T06:51:16.300Z,14.2
2018-04-24T06:51:36.621Z,14.2
2018-04-24T06:51:56.967Z,14.2
2018-04-24T06:52:17.436Z,14.1
2018-04-24T06:52:37.933Z,14.1
2018-04-24T06:52:58.209Z,14
2018-04-24T06:53:19.230Z,13.9
2018-04-24T06:53:39.692Z,14
2018-04-24T06:54:00.013Z,13.8
2018-04-24T06:54:20.316Z,13.9
2018-04-24T06:54:40.712Z,13.7
2018-04-24T06:55:01.189Z,13.8
2018-04-24T06:55:21.447Z,13.7
2018-04-24T06:55:41.774Z,13.7
2018-04-24T06:56:02.142Z,13.8
2018-04-24T06:56:22.711Z,13.8
2018-04-24T06:56:43.128Z,13.7
2018-04-24T06:57:03.679Z,13.8
2018-04-24T06:57:24.024Z,13.8
2018-04-24T06:57:44.641Z,13.7
2018-04-24T06:58:05.044Z,13.8
2018-04-24T06:58:25.552Z,13.9
2018-04-24T06:58:46.043Z,13.7
2018-04-24T06:59:06.514Z,13.8
2018-04-24T06:59:26.848Z,13.8
2018-04-24T06:59:47.304Z,13.9
2018-04-24T07:00:08.321Z,13.9
2018-04-24T07:00:28.794Z,13.8
2018-04-24T07:00:49.364Z,13.8
2018-04-24T07:01:09.614Z,13.8
2018-04-24T07:01:29.982Z,13.8
2018-04-24T07:01:50.336Z,13.7
2018-04-24T07:02:10.688Z,13.7
2018-04-24T07:02:31.197Z,13.8
2018-04-24T07:02:51.641Z,13.7
2018-04-24T07:03:11.943Z,13.7
2018-04-24T07:03:32.243Z,13.7
2018-04-24T07:03:52.715Z,13.7
2018-04-24T07:04:13.052Z,13.8
2018-04-24T07:04:33.423Z,13.7
2018-04-24T07:04:54.105Z,13.7
2018-04-24T07:05:14.463Z,13.8
2018-04-24T07:05:34.890Z,13.8
2018-04-24T07:05:55.446Z,13.8
2018-04-24T07:06:15.879Z,13.8
2018-04-24T07:06:36.353Z,13.8
2018-04-24T07:06:56.782Z,13.7
2018-04-24T07:07:17.200Z,13.7
2018-04-24T07:07:37.477Z,13.7
2018-04-24T07:07:57.778Z,13.7
2018-04-24T07:08:18.348Z,13.7
2018-04-24T07:08:38.739Z,13.7
2018-04-24T07:08:59.163Z,13.7
2018-04-24T07:09:19.539Z,13.7
2018-04-24T07:09:40.042Z,13.7
2018-04-24T07:10:00.578Z,13.7
2018-04-24T07:10:20.991Z,13.8
2018-04-24T07:10:41.376Z,13.8
2018-04-24T07:11:01.759Z,13.8
2018-04-24T07:11:22.479Z,13.8
2018-04-24T07:11:42.995Z,13.7
2018-04-24T07:12:03.389Z,13.8
2018-04-24T07:12:23.866Z,13.7
2018-04-24T07:12:44.432Z,13.7
2018-04-24T07:13:04.877Z,13.7
2018-04-24T07:13:25.434Z,13.7
2018-04-24T07:13:45.769Z,13.6
2018-04-24T07:14:06.101Z,13.6
2018-04-24T07:14:26.567Z,13.6
2018-04-24T07:14:46.866Z,13.5
2018-04-24T07:15:07.348Z,13.7
2018-04-24T07:15:27.789Z,13.8
2018-04-24T07:15:48.175Z,13.8
2018-04-24T07:16:08.759Z,13.8
2018-04-24T07:16:29.166Z,13.7
2018-04-24T07:16:49.639Z,13.8
2018-04-24T07:17:09.933Z,13.8
2018-04-24T07:17:30.264Z,13.8
2018-04-24T07:17:50.660Z,13.7
2018-04-24T07:18:11.166Z,13.7
2018-04-24T07:18:31.462Z,13.8
2018-04-24T07:18:51.863Z,13.8
2018-04-24T07:19:12.480Z,13.8
2018-04-24T07:19:32.941Z,13.9
2018-04-24T07:19:53.357Z,13.8
2018-04-24T07:20:13.875Z,13.9
2018-04-24T07:20:34.247Z,14
2018-04-24T07:20:54.660Z,14
2018-04-24T07:21:14.975Z,13.9
2018-04-24T07:21:35.426Z,14.1
2018-04-24T07:21:55.963Z,14
2018-04-24T07:22:16.406Z,14
2018-04-24T07:22:36.884Z,14.1
2018-04-24T07:22:57.303Z,14.2
2018-04-24T07:23:18.900Z,14.1
2018-04-24T07:23:39.425Z,14.1
2018-04-24T07:23:59.967Z,14.1
2018-04-24T07:24:20.507Z,14.2
2018-04-24T07:24:40.817Z,14.2
2018-04-24T07:25:01.391Z,14.2
2018-04-24T07:25:21.624Z,14.2
2018-04-24T07:25:42.101Z,14.2
2018-04-24T07:26:02.460Z,14.2
2018-04-24T07:26:22.823Z,14.3
2018-04-24T07:26:43.219Z,14.3
2018-04-24T07:27:03.686Z,14.3
2018-04-24T07:27:24.204Z,14.3
2018-04-24T07:27:44.678Z,14.3
2018-04-24T07:28:05.159Z,14.4
2018-04-24T07:28:25.643Z,14.4
2018-04-24T07:28:45.919Z,14.4
2018-04-24T07:29:06.369Z,14.4
2018-04-24T07:29:27.568Z,14.3
2018-04-24T07:29:48.343Z,14.4
2018-04-24T07:30:12.155Z,14.5
2018-04-24T07:30:33.567Z,14.5
2018-04-24T07:30:55.686Z,14.5
2018-04-24T07:31:16.953Z,14.5
2018-04-24T07:31:37.637Z,14.5
2018-04-24T07:31:58.590Z,14.6
2018-04-24T07:32:19.281Z,14.5
2018-04-24T07:32:39.700Z,14.5
2018-04-24T07:33:00.461Z,14.6
2018-04-24T07:33:21.086Z,14.6
2018-04-24T07:33:41.862Z,14.6
2018-04-24T07:34:02.615Z,14.5
2018-04-24T07:34:23.292Z,14.6
2018-04-24T07:34:43.931Z,14.5
2018-04-24T07:35:04.536Z,14.5
2018-04-24T07:35:25.189Z,14.5
2018-04-24T07:35:46.143Z,14.5
2018-04-24T07:36:07.370Z,14.4
2018-04-24T07:36:28.425Z,14.4
2018-04-24T07:36:49.346Z,14.5
2018-04-24T07:37:09.777Z,14.5
2018-04-24T07:37:30.140Z,14.5
2018-04-24T07:37:50.790Z,14.5
2018-04-24T07:38:11.526Z,14.5
2018-04-24T07:38:32.269Z,14.6
2018-04-24T07:38:52.668Z,14.5
2018-04-24T07:39:13.106Z,14.5
2018-04-24T07:39:33.554Z,14.5
2018-04-24T07:39:54.123Z,14.6
2018-04-24T07:40:14.588Z,14.5
2018-04-24T07:40:34.893Z,14.5
2018-04-24T07:40:55.243Z,14.5
2018-04-24T07:41:15.593Z,14.5
2018-04-24T07:41:36.022Z,14.4
2018-04-24T07:41:56.358Z,14.5
2018-04-24T07:42:16.821Z,14.5
2018-04-24T07:42:37.462Z,14.4
2018-04-24T07:42:58.001Z,14.4
2018-04-24T07:43:18.333Z,14.4
2018-04-24T07:43:38.831Z,14.4
2018-04-24T07:43:59.430Z,14.4
2018-04-24T07:44:20.181Z,14.3
2018-04-24T07:44:40.964Z,14.4
2018-04-24T07:45:01.556Z,14.4
2018-04-24T07:45:22.341Z,14.5
2018-04-24T07:45:42.783Z,14.4
2018-04-24T07:46:03.351Z,14.5
2018-04-24T07:46:24.139Z,14.5
2018-04-24T07:46:44.597Z,14.5
2018-04-24T07:47:05.564Z,14.5
2018-04-24T07:47:26.255Z,14.5
2018-04-24T07:47:46.877Z,14.5
2018-04-24T07:48:07.423Z,14.5
2018-04-24T07:48:28.121Z,14.4
2018-04-24T07:48:48.530Z,14.5
2018-04-24T07:49:09.066Z,14.5
2018-04-24T07:49:29.858Z,14.5
2018-04-24T07:49:50.379Z,14.5
2018-04-24T07:50:11.031Z,14.4
2018-04-24T07:50:31.939Z,14.5
2018-04-24T07:50:52.561Z,14.6
2018-04-24T07:51:13.083Z,14.6
2018-04-24T07:51:33.924Z,14.6
2018-04-24T07:51:55.084Z,14.6
2018-04-24T07:52:15.819Z,14.6
2018-04-24T07:52:36.643Z,14.6
2018-04-24T07:52:57.316Z,14.7
2018-04-24T07:53:17.983Z,14.7
2018-04-24T07:53:38.929Z,14.8
2018-04-24T07:54:00.641Z,14.8
2018-04-24T07:54:22.377Z,14.9
2018-04-24T07:54:43.142Z,14.8
2018-04-24T07:55:03.574Z,14.8
2018-04-24T07:55:24.146Z,14.9
2018-04-24T07:55:44.701Z,15
2018-04-24T07:56:05.225Z,14.9
2018-04-24T07:56:25.987Z,15
2018-04-24T07:56:47.355Z,15.1
2018-04-24T07:57:08.296Z,15.1
2018-04-24T07:57:28.954Z,15.1
2018-04-24T07:57:49.611Z,15.2
2018-04-24T07:58:10.067Z,15.2
2018-04-24T07:58:30.818Z,15.3
2018-04-24T07:58:51.446Z,15.2
2018-04-24T07:59:12.273Z,15.3
2018-04-24T07:59:32.907Z,15.3
2018-04-24T07:59:53.713Z,15.3
2018-04-24T08:00:14.306Z,15.3
2018-04-24T08:00:35.486Z,15.3
2018-04-24T08:00:56.614Z,15.3
2018-04-24T08:01:17.242Z,15.3
2018-04-24T08:01:37.718Z,15.3
2018-04-24T08:01:58.091Z,15.3
2018-04-24T08:02:18.506Z,15.4
2018-04-24T08:02:39.025Z,15.4
2018-04-24T08:02:59.545Z,15.3
2018-04-24T08:03:20.015Z,15.4
2018-04-24T08:03:40.388Z,15.4
2018-04-24T08:04:00.847Z,15.5
2018-04-24T08:04:21.258Z,15.5
2018-04-24T08:04:41.731Z,15.4
2018-04-24T08:05:02.374Z,15.4
2018-04-24T08:05:22.743Z,15.6
2018-04-24T08:05:43.817Z,15.5
2018-04-24T08:06:04.290Z,15.6
2018-04-24T08:06:24.703Z,15.6
2018-04-24T08:06:44.984Z,15.5
2018-04-24T08:07:05.426Z,15.6
2018-04-24T08:07:25.861Z,15.6
2018-04-24T08:07:46.297Z,15.7
2018-04-24T08:08:06.621Z,15.8
2018-04-24T08:08:27.259Z,15.7
2018-04-24T08:08:48.163Z,15.7
2018-04-24T08:09:08.915Z,15.9
2018-04-24T08:09:29.341Z,15.9
2018-04-24T08:09:51.661Z,15.9
2018-04-24T08:10:19.872Z,15.9
2018-04-24T08:10:46.997Z,16
2018-04-24T08:11:11.964Z,16
2018-04-24T08:11:33.907Z,16
2018-04-24T08:11:59.701Z,16
2018-04-24T08:12:24.144Z,16.2
2018-04-24T08:12:47.963Z,16.2
2018-04-24T08:13:11.861Z,16.2
2018-04-24T08:13:37.856Z,16.3
2018-04-24T08:14:03.039Z,16.4
2018-04-24T08:14:28.042Z,16.5
2018-04-24T08:14:50.103Z,16.5
2018-04-24T08:15:10.439Z,16.5
2018-04-24T08:15:30.891Z,16.5
2018-04-24T08:15:51.181Z,16.6
2018-04-24T08:16:11.577Z,16.6
2018-04-24T08:16:31.858Z,16.7
2018-04-24T08:16:55.750Z,16.7
2018-04-24T08:17:16.008Z,16.8
2018-04-24T08:17:36.840Z,16.7
2018-04-24T08:17:57.066Z,16.7
2018-04-24T08:18:17.312Z,16.8
2018-04-24T08:18:37.565Z,16.9
2018-04-24T08:18:57.764Z,16.9
2018-04-24T08:19:18.064Z,16.9
2018-04-24T08:19:39.180Z,16.9
2018-04-24T08:19:59.445Z,16.9
2018-04-24T08:20:19.822Z,16.9
2018-04-24T08:20:40.217Z,16.9
2018-04-24T08:21:00.658Z,17
2018-04-24T08:21:20.964Z,16.9
2018-04-24T08:21:43.866Z,16.9
2018-04-24T08:22:06.951Z,17
2018-04-24T08:22:27.281Z,17
2018-04-24T08:22:47.683Z,17
2018-04-24T08:23:07.913Z,16.9
2018-04-24T08:23:28.397Z,17
2018-04-24T08:23:48.804Z,17
2018-04-24T08:24:09.150Z,17
2018-04-24T08:24:29.426Z,17
2018-04-24T08:24:49.929Z,17
2018-04-24T08:25:10.363Z,16.9
2018-04-24T08:25:30.745Z,17.1
2018-04-24T08:25:51.917Z,16.9
2018-04-24T08:26:12.392Z,16.9
2018-04-24T08:26:33.414Z,17
2018-04-24T08:26:53.913Z,17
2018-04-24T08:27:14.234Z,17
2018-04-24T08:27:34.639Z,17
2018-04-24T08:27:55.151Z,17
2018-04-24T08:28:15.672Z,17
2018-04-24T08:28:35.961Z,17
2018-04-24T08:28:56.387Z,17
2018-04-24T08:29:17.029Z,17
2018-04-24T08:29:37.428Z,17.1
2018-04-24T08:29:57.880Z,17.1
2018-04-24T08:30:18.573Z,17.1
2018-04-24T08:30:38.962Z,17.1
2018-04-24T08:30:59.956Z,17.1
2018-04-24T08:31:20.389Z,17.2
2018-04-24T08:31:40.727Z,17.2
2018-04-24T08:32:01.133Z,17.1
2018-04-24T08:32:21.720Z,17.2
2018-04-24T08:32:42.030Z,17.3
2018-04-24T08:33:02.304Z,17.2
2018-04-24T08:33:22.580Z,17.3
2018-04-24T08:33:42.992Z,17.3
2018-04-24T08:34:03.502Z,17.3
2018-04-24T08:34:23.925Z,17.4
2018-04-24T08:34:44.483Z,17.4
2018-04-24T08:35:04.772Z,17.4
2018-04-24T08:35:25.133Z,17.5
2018-04-24T08:35:45.556Z,17.6
2018-04-24T08:36:05.780Z,17.6
2018-04-24T08:36:25.958Z,17.6
2018-04-24T08:36:46.325Z,17.7
2018-04-24T08:37:06.668Z,17.7
2018-04-24T08:37:26.985Z,17.7
2018-04-24T08:37:47.407Z,17.7
2018-04-24T08:38:07.662Z,17.8
2018-04-24T08:38:28.120Z,17.7
2018-04-24T08:38:48.515Z,17.8
2018-04-24T08:39:08.933Z,17.7
2018-04-24T08:39:29.367Z,17.8
2018-04-24T08:39:49.972Z,17.8
2018-04-24T08:40:10.306Z,17.9
2018-04-24T08:40:30.650Z,17.9
2018-04-24T08:40:51.189Z,18
2018-04-24T08:41:11.674Z,17.9
2018-04-24T08:41:33.070Z,17.9
2018-04-24T08:41:53.530Z,17.9
2018-04-24T08:42:14.773Z,18
2018-04-24T08:42:35.142Z,18
2018-04-24T08:42:55.542Z,18
2018-04-24T08:43:15.734Z,17.9
2018-04-24T08:43:36.044Z,17.9
2018-04-24T08:43:56.445Z,18
2018-04-24T08:44:16.694Z,17.9
2018-04-24T08:44:37.009Z,17.9
2018-04-24T08:44:57.356Z,17.9
2018-04-24T08:45:17.650Z,17.8
2018-04-24T08:45:38.033Z,17.7
2018-04-24T08:45:58.298Z,17.8
2018-04-24T08:46:18.781Z,17.7
2018-04-24T08:46:39.236Z,17.7
2018-04-24T08:46:59.593Z,17.7
2018-04-24T08:47:19.869Z,17.7
2018-04-24T08:47:40.363Z,17.6
2018-04-24T08:48:01.116Z,17.6
2018-04-24T08:48:21.289Z,17.6
2018-04-24T08:48:41.596Z,17.6
2018-04-24T08:49:01.902Z,17.6
2018-04-24T08:49:22.297Z,17.6
2018-04-24T08:49:47.550Z,17.5
2018-04-24T08:50:07.908Z,17.5
2018-04-24T08:50:28.258Z,17.5
2018-04-24T08:50:48.678Z,17.5
2018-04-24T08:51:09.817Z,17.5
2018-04-24T08:51:30.224Z,17.4
2018-04-24T08:51:50.602Z,17.4
2018-04-24T08:52:10.949Z,17.4
2018-04-24T08:52:31.559Z,17.4
2018-04-24T08:52:51.836Z,17.3
2018-04-24T08:53:12.150Z,17.3
2018-04-24T08:53:32.563Z,17.3
2018-04-24T08:53:53.001Z,17.3
2018-04-24T08:54:14.343Z,17.3
2018-04-24T08:54:34.850Z,17.3
2018-04-24T08:54:55.927Z,17.2
2018-04-24T08:55:16.256Z,17.3
2018-04-24T08:55:36.587Z,17.2
2018-04-24T08:55:56.985Z,17.2
2018-04-24T08:56:17.423Z,17.2
2018-04-24T08:56:37.811Z,17.3
2018-04-24T08:56:58.457Z,17.2
2018-04-24T08:57:19.184Z,17.2
2018-04-24T08:57:39.848Z,17.3
2018-04-24T08:58:01.957Z,17.2
2018-04-24T08:58:22.557Z,17.3
2018-04-24T08:58:43.145Z,17.3
2018-04-24T08:59:03.477Z,17.2
2018-04-24T08:59:24.076Z,17.3
2018-04-24T08:59:44.409Z,17.2
2018-04-24T09:00:05.740Z,17.2
2018-04-24T09:00:26.177Z,17.3
2018-04-24T09:00:46.406Z,17.3
2018-04-24T09:01:06.811Z,17.3
2018-04-24T09:01:27.909Z,17.3
2018-04-24T09:01:48.075Z,17.3
2018-04-24T09:02:08.445Z,17.4
2018-04-24T09:02:28.636Z,17.4
2018-04-24T09:02:49.942Z,17.4
2018-04-24T09:03:10.868Z,17.3
2018-04-24T09:03:31.219Z,17.4
2018-04-24T09:03:51.572Z,17.4
2018-04-24T09:04:12.520Z,17.4
2018-04-24T09:04:32.851Z,17.4
2018-04-24T09:04:52.939Z,17.4
2018-04-24T09:05:13.380Z,17.5
2018-04-24T09:05:34.378Z,17.4
2018-04-24T09:05:54.625Z,17.4
2018-04-24T09:06:14.879Z,17.4
2018-04-24T09:06:35.939Z,17.4
2018-04-24T09:06:56.169Z,17.5
2018-04-24T09:07:17.456Z,17.5
2018-04-24T09:07:37.625Z,17.5
2018-04-24T09:07:57.825Z,17.5
2018-04-24T09:08:18.155Z,17.6
2018-04-24T09:08:38.401Z,17.6
